Time;durP1;ratioP1;P1;durP2;ratioP2;P2;SDS_P1;SDS_P2;PMS_P1;PMS_P2;Temp;Humidity;BMP_temperature;BMP_pressure;BME280_temperature;BME280_humidity;BME280_pressure;Samples;Min_cycle;Max_cycle;Signal;HPM_P1;HPM_P2
2021/09/28 00:00:53;;;;;;;1.97;1.87;;;16.40;99.90;;;;;;2669294;28;20214;-67
2021/09/28 00:02:11;;;;;;;1.85;1.73;;;16.30;99.90;;;;;;2667587;28;20271;-67
2021/09/28 00:03:30;;;;;;;2.80;1.35;;;16.20;99.90;;;;;;2658486;28;20213;-67
2021/09/28 00:04:48;;;;;;;1.52;1.42;;;16.20;99.90;;;;;;2658027;28;20253;-67
2021/09/28 00:06:06;;;;;;;1.85;1.75;;;16.20;99.90;;;;;;2661628;28;20229;-67
2021/09/28 00:07:24;;;;;;;1.97;1.87;;;16.10;99.90;;;;;;2668912;28;20240;-67
2021/09/28 00:08:42;;;;;;;3.30;1.95;;;16.10;99.90;;;;;;2668735;28;20722;-66
2021/09/28 00:10:05;;;;;;;2.00;1.90;;;16.00;99.90;;;;;;2669049;28;20293;-67
2021/09/28 00:11:24;;;;;;;1.98;1.80;;;15.90;99.90;;;;;;2668890;28;20198;-67
2021/09/28 00:12:42;;;;;;;2.22;2.08;;;15.90;99.90;;;;;;2668766;28;20206;-67
2021/09/28 00:14:01;;;;;;;2.47;2.00;;;15.90;99.90;;;;;;2669515;28;20656;-67
2021/09/28 00:15:18;;;;;;;2.15;2.00;;;15.90;99.90;;;;;;2668766;28;20911;-67
2021/09/28 00:16:37;;;;;;;2.37;2.10;;;15.90;99.90;;;;;;2668690;28;20919;-68
2021/09/28 00:17:55;;;;;;;2.85;2.63;;;15.90;99.90;;;;;;2669055;28;20613;-67
2021/09/28 00:19:13;;;;;;;2.10;2.00;;;15.90;99.90;;;;;;2666696;28;20876;-67
2021/09/28 00:20:37;;;;;;;2.03;1.92;;;15.80;99.90;;;;;;2658067;28;20754;-67
2021/09/28 00:21:55;;;;;;;2.92;2.40;;;15.80;99.90;;;;;;2658630;28;20202;-67
2021/09/28 00:23:13;;;;;;;2.80;2.08;;;15.70;99.90;;;;;;2658551;28;20207;-67
2021/09/28 00:24:31;;;;;;;2.65;2.30;;;15.70;99.90;;;;;;2657528;28;20242;-66
2021/09/28 00:25:50;;;;;;;2.08;1.98;;;15.60;99.90;;;;;;2657872;28;20276;-68
2021/09/28 00:27:07;;;;;;;2.22;1.63;;;15.60;99.90;;;;;;2658000;28;20277;-67
2021/09/28 00:28:28;;;;;;;2.10;2.00;;;15.60;99.90;;;;;;2657760;28;20747;-68
2021/09/28 00:29:46;;;;;;;1.70;1.60;;;15.50;99.90;;;;;;2663371;28;20257;-67
2021/09/28 00:31:06;;;;;;;1.52;1.50;;;15.40;99.90;;;;;;2668675;28;20206;-67
2021/09/28 00:32:24;;;;;;;1.60;1.50;;;15.30;99.90;;;;;;2668487;28;20218;-68
2021/09/28 00:33:42;;;;;;;1.67;1.57;;;15.30;99.90;;;;;;2668586;28;20671;-67
2021/09/28 00:35:01;;;;;;;1.58;1.48;;;15.20;99.90;;;;;;2668062;28;20194;-67
2021/09/28 00:36:22;;;;;;;1.65;1.52;;;15.10;99.90;;;;;;2665925;28;20210;-67
2021/09/28 00:37:41;;;;;;;1.67;1.58;;;15.10;99.90;;;;;;2657797;28;20211;-68
2021/09/28 00:38:58;;;;;;;1.20;1.20;;;15.10;99.90;;;;;;2657990;28;20206;-67
2021/09/28 00:40:16;;;;;;;1.63;1.63;;;15.00;99.90;;;;;;2667423;28;20337;-66
2021/09/28 00:41:34;;;;;;;1.45;1.42;;;15.00;99.90;;;;;;2668670;28;20789;-67
2021/09/28 00:42:52;;;;;;;1.73;1.70;;;15.00;99.90;;;;;;2668501;28;20316;-68
2021/09/28 00:44:11;;;;;;;1.80;1.70;;;14.90;99.90;;;;;;2668067;28;20263;-68
2021/09/28 00:45:29;;;;;;;1.90;1.70;;;14.90;99.90;;;;;;2667922;28;20209;-68
2021/09/28 00:46:48;;;;;;;4.03;1.85;;;14.90;99.90;;;;;;2668093;28;20242;-67
2021/09/28 00:48:06;;;;;;;1.42;1.42;;;14.80;99.90;;;;;;2668492;28;20262;-67
2021/09/28 00:49:24;;;;;;;1.70;1.60;;;14.70;99.90;;;;;;2665974;28;20210;-68
2021/09/28 00:50:42;;;;;;;1.63;1.33;;;14.50;99.90;;;;;;2657973;28;20211;-67
2021/09/28 00:52:00;;;;;;;4.00;1.65;;;14.50;99.90;;;;;;2658337;28;20209;-67
2021/09/28 00:53:18;;;;;;;1.70;1.60;;;14.40;99.90;;;;;;2660893;28;20232;-67
2021/09/28 00:54:37;;;;;;;1.85;1.75;;;14.30;99.90;;;;;;2668923;28;20745;-67
2021/09/28 00:55:55;;;;;;;1.67;1.30;;;14.30;99.90;;;;;;2668835;28;20268;-68
2021/09/28 00:57:13;;;;;;;1.75;1.00;;;14.20;99.90;;;;;;2668666;28;20233;-67
2021/09/28 00:58:31;;;;;;;1.13;1.10;;;14.20;99.90;;;;;;2667285;28;20236;-67
2021/09/28 00:59:49;;;;;;;2.38;1.30;;;14.20;99.90;;;;;;2667365;28;20202;-67
2021/09/28 01:01:08;;;;;;;1.73;1.48;;;14.10;99.90;;;;;;2668403;28;20206;-67
2021/09/28 01:02:26;;;;;;;4.28;1.58;;;14.10;99.90;;;;;;2668401;28;20300;-67
2021/09/28 01:03:44;;;;;;;1.98;1.77;;;14.10;99.90;;;;;;2668085;28;20260;-66
2021/09/28 01:05:03;;;;;;;2.40;1.77;;;14.00;99.90;;;;;;2667911;28;20707;-67
2021/09/28 01:06:20;;;;;;;4.05;1.70;;;13.90;99.90;;;;;;2668263;28;20600;-67
2021/09/28 01:07:39;;;;;;;1.47;1.37;;;13.80;99.90;;;;;;2667790;28;20206;-66
2021/09/28 01:08:57;;;;;;;1.23;1.13;;;13.70;99.90;;;;;;2668341;28;20256;-67
2021/09/28 01:10:15;;;;;;;2.67;1.80;;;13.70;99.90;;;;;;2661406;28;20245;-67
2021/09/28 01:11:33;;;;;;;1.92;1.52;;;13.70;99.90;;;;;;2668359;28;20206;-67
2021/09/28 01:12:52;;;;;;;1.40;1.30;;;13.60;99.90;;;;;;2668240;28;20597;-67
2021/09/28 01:14:09;;;;;;;1.77;1.40;;;13.60;99.90;;;;;;2667873;28;20202;-68
2021/09/28 01:15:28;;;;;;;2.20;1.57;;;13.50;99.90;;;;;;2667787;28;20241;-67
2021/09/28 01:16:46;;;;;;;2.55;1.33;;;13.50;99.90;;;;;;2667630;28;20241;-67
2021/09/28 01:18:05;;;;;;;1.83;1.50;;;13.50;99.90;;;;;;2668176;28;20236;-68
2021/09/28 01:19:23;;;;;;;1.98;1.70;;;13.40;99.90;;;;;;2663000;28;20198;-67
2021/09/28 01:20:42;;;;;;;2.55;1.90;;;13.40;99.90;;;;;;2668173;28;20194;-67
2021/09/28 01:21:59;;;;;;;3.88;2.00;;;13.40;99.90;;;;;;2668580;28;20194;-67
2021/09/28 01:23:18;;;;;;;4.50;2.27;;;13.30;99.90;;;;;;2668078;28;20222;-67
2021/09/28 01:24:36;;;;;;;3.15;1.90;;;13.30;99.90;;;;;;2667340;28;20272;-67
2021/09/28 01:25:53;;;;;;;3.38;3.08;;;13.30;99.90;;;;;;2668226;28;20237;-67
2021/09/28 01:27:12;;;;;;;3.27;2.13;;;13.20;99.90;;;;;;2666520;28;20738;-66
2021/09/28 01:28:30;;;;;;;2.78;2.55;;;13.20;99.90;;;;;;2668034;28;20256;-67
2021/09/28 01:29:49;;;;;;;2.85;2.20;;;13.20;99.90;;;;;;2663043;28;20203;-66
2021/09/28 01:31:06;;;;;;;2.90;2.35;;;13.20;99.90;;;;;;2657285;28;20265;-66
2021/09/28 01:32:25;;;;;;;2.43;2.23;;;13.30;99.90;;;;;;2657211;28;20319;-66
2021/09/28 01:33:43;;;;;;;2.00;1.90;;;13.30;99.90;;;;;;2660212;28;20676;-66
2021/09/28 01:35:01;;;;;;;3.42;2.30;;;13.20;99.90;;;;;;2667124;28;20253;-66
2021/09/28 01:36:19;;;;;;;2.03;1.90;;;13.20;99.90;;;;;;2667980;28;20396;-66
2021/09/28 01:37:37;;;;;;;2.67;2.03;;;13.20;99.90;;;;;;2668131;28;20695;-66
2021/09/28 01:38:55;;;;;;;2.75;2.30;;;13.20;99.90;;;;;;2668014;28;20730;-66
2021/09/28 01:40:13;;;;;;;2.20;1.73;;;13.20;99.90;;;;;;2660111;28;20250;-66
2021/09/28 01:41:31;;;;;;;1.70;1.60;;;13.20;99.90;;;;;;2657249;28;20739;-66
2021/09/28 01:42:49;;;;;;;2.57;1.97;;;13.20;99.90;;;;;;2657612;28;20281;-66
2021/09/28 01:44:07;;;;;;;3.97;1.83;;;13.10;99.90;;;;;;2658505;28;20253;-66
2021/09/28 01:45:25;;;;;;;3.40;1.97;;;13.10;99.90;;;;;;2668480;28;20315;-66
2021/09/28 01:46:44;;;;;;;2.10;1.85;;;13.10;99.90;;;;;;2668366;28;20202;-66
2021/09/28 01:48:02;;;;;;;2.20;2.00;;;13.10;99.90;;;;;;2668171;28;20675;-66
2021/09/28 01:49:20;;;;;;;1.92;1.52;;;13.10;99.90;;;;;;2667254;28;20652;-66
2021/09/28 01:50:39;;;;;;;2.78;1.95;;;13.10;99.90;;;;;;2657117;28;20907;-66
2021/09/28 01:51:56;;;;;;;2.25;1.60;;;13.20;99.90;;;;;;2657039;28;20670;-67
2021/09/28 01:53:15;;;;;;;2.10;1.80;;;13.10;99.90;;;;;;2657220;28;20234;-67
2021/09/28 01:54:33;;;;;;;2.22;2.13;;;13.10;99.90;;;;;;2656553;28;20261;-66
2021/09/28 01:55:51;;;;;;;2.30;1.80;;;13.00;99.90;;;;;;2657422;28;20256;-66
2021/09/28 01:57:09;;;;;;;1.90;1.80;;;13.00;99.90;;;;;;2656978;28;20336;-66
2021/09/28 01:58:27;;;;;;;2.08;1.60;;;13.10;99.90;;;;;;2656159;28;20237;-66
2021/09/28 01:59:45;;;;;;;2.60;2.10;;;13.00;99.90;;;;;;2660430;28;20268;-67
2021/09/28 02:01:02;;;;;;;2.25;2.05;;;13.00;99.90;;;;;;2667109;28;20206;-67
2021/09/28 02:02:21;;;;;;;2.77;1.60;;;13.00;99.90;;;;;;2657409;28;20244;-66
2021/09/28 02:03:38;;;;;;;2.05;1.63;;;13.00;99.90;;;;;;2656991;28;20621;-66
2021/09/28 02:04:57;;;;;;;4.77;1.90;;;13.00;99.90;;;;;;2656851;28;20286;-67
2021/09/28 02:06:14;;;;;;;2.50;2.30;;;13.00;99.90;;;;;;2657350;28;20209;-67
2021/09/28 02:07:33;;;;;;;2.47;1.57;;;13.00;99.90;;;;;;2657224;28;20297;-67
2021/09/28 02:08:51;;;;;;;1.70;1.60;;;13.00;99.90;;;;;;2657371;28;20202;-66
2021/09/28 02:10:09;;;;;;;2.40;1.80;;;13.00;99.90;;;;;;2663972;28;20229;-67
2021/09/28 02:11:27;;;;;;;2.67;1.95;;;13.00;99.90;;;;;;2667648;28;20198;-67
2021/09/28 02:12:45;;;;;;;1.83;1.73;;;12.90;99.90;;;;;;2667570;28;20324;-67
2021/09/28 02:14:04;;;;;;;1.50;1.40;;;12.90;99.90;;;;;;2667430;28;20927;-68
2021/09/28 02:15:22;;;;;;;1.98;1.73;;;13.00;99.90;;;;;;2667254;28;20206;-66
2021/09/28 02:16:40;;;;;;;6.82;1.70;;;13.00;99.90;;;;;;2667509;28;20207;-65
2021/09/28 02:17:58;;;;;;;2.10;1.93;;;12.90;99.90;;;;;;2667191;28;20263;-66
2021/09/28 02:19:17;;;;;;;2.95;1.60;;;13.00;99.90;;;;;;2667463;28;20226;-67
2021/09/28 02:20:34;;;;;;;2.53;2.33;;;13.00;99.90;;;;;;2667018;28;20214;-66
2021/09/28 02:21:53;;;;;;;2.07;1.83;;;12.90;99.90;;;;;;2667782;28;20297;-66
2021/09/28 02:23:10;;;;;;;4.38;1.50;;;12.90;99.90;;;;;;2667499;28;20206;-66
2021/09/28 02:24:28;;;;;;;3.87;2.00;;;12.90;99.90;;;;;;2667127;28;20260;-66
2021/09/28 02:25:46;;;;;;;2.00;1.80;;;12.90;99.90;;;;;;2666789;28;20260;-66
2021/09/28 02:27:04;;;;;;;2.33;1.70;;;12.90;99.90;;;;;;2667372;28;20261;-67
2021/09/28 02:28:22;;;;;;;3.03;1.70;;;12.90;99.90;;;;;;2667488;28;20202;-66
2021/09/28 02:29:40;;;;;;;2.67;2.20;;;12.80;99.90;;;;;;2664953;28;20237;-66
2021/09/28 02:30:58;;;;;;;2.30;2.10;;;12.80;99.90;;;;;;2657055;28;20207;-66
2021/09/28 02:32:16;;;;;;;7.30;1.80;;;12.80;99.90;;;;;;2657001;28;20327;-66
2021/09/28 02:33:34;;;;;;;3.70;1.75;;;12.80;99.90;;;;;;2665936;28;20687;-66
2021/09/28 02:34:52;;;;;;;1.60;1.50;;;12.80;99.90;;;;;;2666725;28;20295;-66
2021/09/28 02:36:10;;;;;;;2.05;1.75;;;12.80;99.90;;;;;;2657964;28;20219;-66
2021/09/28 02:37:28;;;;;;;2.47;1.95;;;12.80;99.90;;;;;;2656930;28;20230;-66
2021/09/28 02:38:46;;;;;;;2.17;2.07;;;12.80;99.90;;;;;;2655590;28;20277;-66
2021/09/28 02:40:04;;;;;;;2.00;1.65;;;12.80;99.90;;;;;;2662153;28;20228;-66
2021/09/28 02:41:22;;;;;;;3.37;1.70;;;12.80;99.90;;;;;;2668056;28;20672;-66
2021/09/28 02:42:41;;;;;;;4.03;1.95;;;12.80;99.90;;;;;;2667786;28;20268;-66
2021/09/28 02:44:00;;;;;;;2.75;2.22;;;12.70;99.90;;;;;;2667994;28;20210;-66
2021/09/28 02:45:18;;;;;;;3.70;2.10;;;12.70;99.90;;;;;;2667307;28;20591;-67
2021/09/28 02:46:36;;;;;;;3.17;2.00;;;12.70;99.90;;;;;;2667260;28;20211;-67
2021/09/28 02:47:54;;;;;;;3.30;2.20;;;12.70;99.90;;;;;;2667573;28;20213;-66
2021/09/28 02:49:12;;;;;;;3.60;2.13;;;12.70;99.90;;;;;;2666867;28;20296;-66
2021/09/28 02:50:33;;;;;;;2.40;2.20;;;12.70;99.90;;;;;;2658238;28;20206;-66
2021/09/28 02:51:51;;;;;;;2.95;2.30;;;12.70;99.90;;;;;;2656994;28;20214;-66
2021/09/28 02:53:10;;;;;;;2.03;1.83;;;12.70;99.90;;;;;;2657690;28;20213;-66
2021/09/28 02:54:28;;;;;;;4.75;2.58;;;12.70;99.90;;;;;;2656264;28;20202;-66
2021/09/28 02:55:46;;;;;;;2.40;2.13;;;12.70;99.90;;;;;;2656512;28;20214;-66
2021/09/28 02:57:04;;;;;;;3.33;2.80;;;12.70;99.90;;;;;;2656706;28;20356;-67
2021/09/28 02:58:22;;;;;;;2.60;2.40;;;12.70;99.90;;;;;;2660194;28;20933;-66
2021/09/28 02:59:40;;;;;;;2.30;2.10;;;12.70;99.90;;;;;;2667103;28;20283;-66
2021/09/28 03:00:58;;;;;;;4.05;2.90;;;12.70;99.90;;;;;;2666946;28;20206;-66
2021/09/28 03:02:17;;;;;;;3.15;2.10;;;12.70;99.90;;;;;;2656854;28;20284;-66
2021/09/28 03:03:35;;;;;;;6.70;2.30;;;12.70;99.90;;;;;;2657012;28;20860;-66
2021/09/28 03:04:54;;;;;;;2.20;1.92;;;12.70;99.90;;;;;;2656147;28;20801;-66
2021/09/28 03:06:12;;;;;;;3.80;2.40;;;12.70;99.90;;;;;;2656925;28;20723;-66
2021/09/28 03:07:30;;;;;;;2.33;2.13;;;12.70;99.90;;;;;;2656821;28;20210;-66
2021/09/28 03:08:48;;;;;;;3.43;2.30;;;12.70;99.90;;;;;;2664062;28;20203;-66
2021/09/28 03:10:06;;;;;;;4.10;2.40;;;12.70;99.90;;;;;;2657922;28;20210;-66
2021/09/28 03:11:26;;;;;;;2.60;2.40;;;12.70;99.90;;;;;;2656650;28;20265;-66
2021/09/28 03:12:44;;;;;;;2.50;2.30;;;12.70;99.90;;;;;;2656592;28;20214;-66
2021/09/28 03:14:02;;;;;;;3.03;2.13;;;12.70;99.90;;;;;;2656242;28;20305;-66
2021/09/28 03:15:20;;;;;;;2.63;2.40;;;12.70;99.90;;;;;;2656384;28;20265;-66
2021/09/28 03:16:39;;;;;;;3.40;2.17;;;12.70;99.90;;;;;;2656820;28;20215;-66
2021/09/28 03:17:57;;;;;;;2.42;2.22;;;12.60;99.90;;;;;;2657144;28;20234;-66
2021/09/28 03:19:15;;;;;;;4.47;2.30;;;12.60;99.90;;;;;;2656739;28;21030;-66
2021/09/28 03:20:35;;;;;;;5.10;2.63;;;12.60;99.90;;;;;;2656828;28;20210;-66
2021/09/28 03:21:52;;;;;;;3.03;2.28;;;12.60;99.90;;;;;;2656955;28;20226;-66
2021/09/28 03:23:10;;;;;;;4.83;2.43;;;12.60;99.90;;;;;;2659561;28;20205;-66
2021/09/28 03:24:29;;;;;;;3.38;2.47;;;12.60;99.90;;;;;;2666753;28;20685;-66
2021/09/28 03:25:47;;;;;;;4.65;2.40;;;12.60;99.90;;;;;;2666827;28;20828;-66
2021/09/28 03:27:05;;;;;;;1.98;1.85;;;12.50;99.90;;;;;;2665977;28;20675;-66
2021/09/28 03:28:23;;;;;;;2.57;2.27;;;12.50;99.90;;;;;;2666366;28;20289;-66
2021/09/28 03:29:41;;;;;;;3.97;2.33;;;12.50;99.90;;;;;;2667023;28;20276;-66
2021/09/28 03:30:59;;;;;;;2.80;2.37;;;12.40;99.90;;;;;;2667171;28;20313;-66
2021/09/28 03:32:18;;;;;;;5.18;2.47;;;12.40;99.90;;;;;;2667210;28;20233;-66
2021/09/28 03:33:36;;;;;;;6.22;2.78;;;12.30;99.90;;;;;;2667708;28;20656;-66
2021/09/28 03:34:54;;;;;;;3.00;2.70;;;12.30;99.90;;;;;;2667701;28;20206;-66
2021/09/28 03:36:13;;;;;;;2.80;2.58;;;12.30;99.90;;;;;;2667843;28;20248;-66
2021/09/28 03:37:31;;;;;;;3.08;2.40;;;12.30;99.90;;;;;;2667006;28;20241;-66
2021/09/28 03:38:49;;;;;;;2.67;2.38;;;12.20;99.90;;;;;;2659570;28;20249;-66
2021/09/28 03:40:07;;;;;;;2.73;2.40;;;12.20;99.90;;;;;;2656796;28;20697;-66
2021/09/28 03:41:26;;;;;;;3.03;2.80;;;12.20;99.90;;;;;;2656630;28;20207;-66
2021/09/28 03:42:44;;;;;;;4.28;2.90;;;12.20;99.90;;;;;;2656681;28;20222;-67
2021/09/28 03:44:03;;;;;;;3.08;2.50;;;12.10;99.90;;;;;;2664282;28;20210;-66
2021/09/28 03:45:21;;;;;;;2.67;2.47;;;12.10;99.90;;;;;;2666837;28;20202;-66
2021/09/28 03:46:40;;;;;;;2.90;2.50;;;12.10;99.90;;;;;;2667169;28;20210;-66
2021/09/28 03:47:58;;;;;;;3.17;2.60;;;12.10;99.90;;;;;;2666853;28;20325;-66
2021/09/28 03:49:16;;;;;;;3.33;2.95;;;12.10;99.90;;;;;;2657010;28;20245;-66
2021/09/28 03:50:35;;;;;;;5.50;3.15;;;12.00;99.90;;;;;;2658361;28;20203;-66
2021/09/28 03:51:52;;;;;;;4.93;2.88;;;12.00;99.90;;;;;;2658910;28;20235;-66
2021/09/28 03:53:11;;;;;;;5.67;2.47;;;12.10;99.90;;;;;;2660635;28;20361;-66
2021/09/28 03:54:29;;;;;;;4.00;3.17;;;12.10;99.90;;;;;;2668605;28;20726;-67
2021/09/28 03:55:48;;;;;;;5.20;3.10;;;12.10;99.90;;;;;;2668600;28;20632;-66
2021/09/28 03:57:05;;;;;;;4.05;3.20;;;12.00;99.90;;;;;;2668986;28;20206;-66
2021/09/28 03:58:24;;;;;;;2.73;2.50;;;12.00;99.90;;;;;;2664498;28;20207;-66
2021/09/28 03:59:41;;;;;;;4.20;2.92;;;12.00;99.90;;;;;;2658280;28;20211;-66
2021/09/28 04:01:00;;;;;;;5.23;2.80;;;12.00;99.90;;;;;;2666484;28;20305;-66
2021/09/28 04:02:18;;;;;;;5.40;2.47;;;12.10;99.90;;;;;;2668734;28;20198;-67
2021/09/28 04:03:37;;;;;;;4.05;2.58;;;12.10;99.90;;;;;;2669210;28;20411;-66
2021/09/28 04:04:55;;;;;;;4.97;2.63;;;12.10;99.90;;;;;;2668558;28;20289;-66
2021/09/28 04:06:14;;;;;;;5.57;3.10;;;12.10;99.90;;;;;;2669311;28;20256;-67
2021/09/28 04:07:33;;;;;;;2.72;2.53;;;12.10;99.90;;;;;;2668979;28;20206;-66
2021/09/28 04:08:50;;;;;;;3.00;2.80;;;12.10;99.90;;;;;;2668170;28;20400;-66
2021/09/28 04:10:09;;;;;;;6.20;2.73;;;12.10;99.90;;;;;;2668782;28;20212;-66
2021/09/28 04:11:27;;;;;;;2.95;2.55;;;12.10;99.90;;;;;;2668766;28;20206;-67
2021/09/28 04:12:46;;;;;;;3.20;2.25;;;12.10;99.90;;;;;;2668764;28;20210;-66
2021/09/28 04:14:05;;;;;;;2.85;2.60;;;12.00;99.90;;;;;;2668487;28;20217;-66
2021/09/28 04:15:25;;;;;;;3.15;2.83;;;12.00;99.90;;;;;;2668748;28;20210;-66
2021/09/28 04:16:42;;;;;;;7.65;3.00;;;12.00;99.90;;;;;;2658969;28;20202;-66
2021/09/28 04:18:01;;;;;;;3.00;2.30;;;11.90;99.90;;;;;;2666501;28;20233;-66
2021/09/28 04:19:19;;;;;;;2.80;2.60;;;11.90;99.90;;;;;;2669447;28;20206;-66
2021/09/28 04:20:38;;;;;;;4.43;3.00;;;11.80;99.90;;;;;;2665924;28;20252;-66
2021/09/28 04:21:55;;;;;;;7.13;2.90;;;11.80;99.90;;;;;;2668261;28;20209;-67
2021/09/28 04:23:14;;;;;;;3.23;2.93;;;11.80;99.90;;;;;;2659785;28;20672;-66
2021/09/28 04:24:32;;;;;;;6.45;3.35;;;11.80;99.90;;;;;;2657541;28;20699;-66
2021/09/28 04:25:52;;;;;;;5.25;3.28;;;11.70;99.90;;;;;;2658565;28;20530;-66
2021/09/28 04:27:10;;;;;;;9.85;3.65;;;11.70;99.90;;;;;;2658555;28;20882;-66
2021/09/28 04:28:29;;;;;;;3.58;3.28;;;11.70;99.90;;;;;;2658713;28;20218;-66
2021/09/28 04:29:47;;;;;;;4.05;3.22;;;11.60;99.90;;;;;;2658181;28;20688;-66
2021/09/28 04:31:07;;;;;;;4.30;3.80;;;11.60;99.90;;;;;;2658197;28;20210;-67
2021/09/28 04:32:26;;;;;;;5.00;3.30;;;11.60;99.90;;;;;;2657809;28;20222;-66
2021/09/28 04:33:44;;;;;;;6.38;3.33;;;11.60;99.90;;;;;;2658047;28;20211;-66
2021/09/28 04:35:03;;;;;;;3.22;2.97;;;11.60;99.90;;;;;;2666120;28;20279;-66
2021/09/28 04:36:22;;;;;;;3.35;3.05;;;11.50;99.90;;;;;;2668154;28;20230;-66
2021/09/28 04:37:40;;;;;;;5.28;3.55;;;11.50;99.90;;;;;;2668674;28;20232;-66
2021/09/28 04:38:59;;;;;;;4.30;2.97;;;11.50;99.90;;;;;;2668810;28;20198;-66
2021/09/28 04:40:17;;;;;;;5.32;3.22;;;11.50;99.90;;;;;;2668879;28;20210;-67
2021/09/28 04:41:36;;;;;;;3.33;3.00;;;11.40;99.90;;;;;;2668753;28;20295;-67
2021/09/28 04:42:54;;;;;;;3.58;3.25;;;11.40;99.90;;;;;;2668663;28;20206;-67
2021/09/28 04:44:13;;;;;;;2.97;2.70;;;11.40;99.90;;;;;;2667791;28;20206;-67
2021/09/28 04:45:31;;;;;;;5.38;2.90;;;11.40;99.90;;;;;;2667629;28;20206;-67
2021/09/28 04:46:50;;;;;;;3.30;3.10;;;11.40;99.90;;;;;;2658328;28;20229;-66
2021/09/28 04:48:08;;;;;;;4.40;3.00;;;11.40;99.90;;;;;;2658069;28;20249;-66
2021/09/28 04:49:26;;;;;;;5.95;3.90;;;11.40;99.90;;;;;;2657961;28;20214;-66
2021/09/28 04:50:46;;;;;;;4.18;3.30;;;11.30;99.90;;;;;;2657762;28;20207;-66
2021/09/28 04:52:05;;;;;;;5.15;3.60;;;11.30;99.90;;;;;;2666941;28;20237;-66
2021/09/28 04:53:24;;;;;;;7.60;3.55;;;11.30;99.90;;;;;;2668460;28;20202;-66
2021/09/28 04:54:41;;;;;;;4.20;3.50;;;11.40;99.90;;;;;;2667939;28;20699;-66
2021/09/28 04:56:00;;;;;;;4.10;3.23;;;11.30;99.90;;;;;;2667837;28;20207;-66
2021/09/28 04:57:21;;;;;;;4.13;3.35;;;11.30;99.90;;;;;;2668428;28;20245;-66
2021/09/28 04:58:39;;;;;;;3.83;3.00;;;11.30;99.90;;;;;;2667441;28;20253;-66
2021/09/28 04:59:58;;;;;;;3.80;3.40;;;11.30;99.90;;;;;;2667324;28;21384;-66
2021/09/28 05:01:16;;;;;;;5.35;3.10;;;11.40;99.90;;;;;;2667458;28;20206;-66
2021/09/28 05:02:35;;;;;;;5.78;3.85;;;11.40;99.90;;;;;;2667942;28;20230;-66
2021/09/28 05:03:53;;;;;;;4.00;3.63;;;11.40;99.90;;;;;;2668163;28;20255;-66
2021/09/28 05:05:11;;;;;;;5.47;3.83;;;11.40;99.90;;;;;;2667928;28;20233;-66
2021/09/28 05:06:30;;;;;;;4.10;3.60;;;11.50;99.90;;;;;;2667446;28;20206;-66
2021/09/28 05:07:47;;;;;;;5.72;3.45;;;11.50;99.90;;;;;;2668332;28;20203;-67
2021/09/28 05:09:06;;;;;;;5.77;3.83;;;11.50;99.90;;;;;;2658849;28;20664;-67
2021/09/28 05:10:24;;;;;;;4.57;3.65;;;11.50;99.90;;;;;;2657490;28;20774;-66
2021/09/28 05:11:42;;;;;;;5.57;4.25;;;11.60;99.90;;;;;;2657787;28;20210;-66
2021/09/28 05:13:02;;;;;;;4.20;3.80;;;11.60;99.90;;;;;;2657398;28;20297;-66
2021/09/28 05:14:20;;;;;;;4.30;4.00;;;11.60;99.90;;;;;;2657588;28;20818;-66
2021/09/28 05:15:39;;;;;;;5.32;3.70;;;11.70;99.90;;;;;;2657637;28;20202;-66
2021/09/28 05:16:57;;;;;;;4.07;3.72;;;11.70;99.90;;;;;;2664647;28;20207;-66
2021/09/28 05:18:15;;;;;;;3.80;3.33;;;11.80;99.90;;;;;;2668016;28;20226;-66
2021/09/28 05:19:34;;;;;;;7.32;4.20;;;11.80;99.90;;;;;;2658355;28;20213;-67
2021/09/28 05:20:52;;;;;;;6.85;3.85;;;11.90;99.90;;;;;;2653083;28;20290;-66
2021/09/28 05:22:11;;;;;;;7.88;3.58;;;11.90;99.90;;;;;;2647868;28;20203;-66
2021/09/28 05:23:29;;;;;;;4.10;3.80;;;11.90;99.90;;;;;;2657259;28;20203;-67
2021/09/28 05:24:48;;;;;;;4.85;4.20;;;11.90;99.90;;;;;;2655852;28;20634;-66
2021/09/28 05:26:06;;;;;;;4.05;3.58;;;12.00;99.90;;;;;;2648735;28;20617;-66
2021/09/28 05:27:25;;;;;;;10.50;4.00;;;12.00;99.90;;;;;;2651036;28;20612;-67
2021/09/28 05:28:43;;;;;;;8.85;4.25;;;12.10;99.90;;;;;;2651481;28;20195;-66
2021/09/28 05:30:02;;;;;;;5.13;3.80;;;12.10;99.90;;;;;;2651428;28;20270;-66
2021/09/28 05:31:21;;;;;;;3.83;3.42;;;12.00;99.90;;;;;;2654725;28;20264;-66
2021/09/28 05:32:40;;;;;;;7.43;4.40;;;12.00;99.90;;;;;;2657707;28;20195;-66
2021/09/28 05:33:58;;;;;;;10.23;4.43;;;12.00;99.90;;;;;;2657586;28;20203;-67
2021/09/28 05:35:15;;;;;;;8.68;4.28;;;11.90;99.90;;;;;;2657494;28;20213;-66
2021/09/28 05:36:34;;;;;;;4.13;3.73;;;11.90;99.90;;;;;;2657937;28;20269;-66
2021/09/28 05:37:53;;;;;;;7.50;3.65;;;11.80;99.90;;;;;;2657906;28;20782;-66
2021/09/28 05:39:11;;;;;;;4.22;3.83;;;11.80;99.90;;;;;;2654120;28;20199;-67
2021/09/28 05:40:29;;;;;;;7.17;4.63;;;11.80;99.90;;;;;;2647425;28;20212;-66
2021/09/28 05:41:47;;;;;;;5.47;4.60;;;11.70;99.90;;;;;;2647436;28;20204;-66
2021/09/28 05:43:05;;;;;;;5.87;4.13;;;11.70;99.90;;;;;;2655910;28;20265;-66
2021/09/28 05:44:24;;;;;;;4.88;4.00;;;11.80;99.90;;;;;;2657036;28;20214;-66
2021/09/28 05:45:42;;;;;;;5.35;4.30;;;11.70;99.90;;;;;;2656620;28;20226;-66
2021/09/28 05:47:00;;;;;;;6.88;4.85;;;11.70;99.90;;;;;;2646771;28;20207;-66
2021/09/28 05:48:18;;;;;;;7.10;4.83;;;11.70;99.90;;;;;;2647472;28;21021;-66
2021/09/28 05:49:39;;;;;;;4.88;4.38;;;11.70;99.90;;;;;;2647578;28;20673;-66
2021/09/28 05:50:57;;;;;;;6.50;5.47;;;11.70;99.90;;;;;;2647674;28;20580;-66
2021/09/28 05:52:14;;;;;;;7.32;5.28;;;11.70;99.90;;;;;;2647642;28;20823;-66
2021/09/28 05:53:37;;;;;;;6.60;4.80;;;11.70;99.90;;;;;;2647165;28;20231;-66
2021/09/28 05:54:55;;;;;;;6.75;4.70;;;11.70;99.90;;;;;;2646679;28;20207;-66
2021/09/28 05:56:12;;;;;;;8.75;4.45;;;11.70;99.90;;;;;;2647198;28;20258;-66
2021/09/28 05:57:31;;;;;;;8.00;5.50;;;11.70;99.90;;;;;;2644243;28;20262;-66
2021/09/28 05:58:49;;;;;;;7.50;5.32;;;11.80;99.90;;;;;;2645835;28;20229;-66
2021/09/28 06:00:09;;;;;;;5.85;5.25;;;11.80;99.90;;;;;;2651820;28;20240;-66
2021/09/28 06:01:28;;;;;;;6.60;6.00;;;11.80;99.90;;;;;;2656833;28;20298;-66
2021/09/28 06:02:45;;;;;;;10.30;6.95;;;11.90;99.90;;;;;;2655202;28;20233;-66
2021/09/28 06:04:04;;;;;;;8.30;6.53;;;11.90;99.90;;;;;;2656377;28;21048;-66
2021/09/28 06:05:22;;;;;;;8.27;6.18;;;11.90;99.90;;;;;;2655981;28;20206;-66
2021/09/28 06:06:41;;;;;;;9.98;6.07;;;11.90;99.90;;;;;;2656745;28;20256;-66
2021/09/28 06:07:59;;;;;;;6.45;5.53;;;12.00;99.90;;;;;;2656084;28;20238;-67
2021/09/28 06:09:17;;;;;;;6.70;5.35;;;12.00;99.90;;;;;;2657099;28;20264;-66
2021/09/28 06:10:36;;;;;;;7.60;5.90;;;12.10;99.90;;;;;;2657777;28;20697;-66
2021/09/28 06:11:54;;;;;;;5.32;4.93;;;12.10;99.90;;;;;;2657919;28;20257;-66
2021/09/28 06:13:13;;;;;;;6.68;5.68;;;12.10;99.90;;;;;;2657688;28;20207;-66
2021/09/28 06:14:32;;;;;;;8.55;6.90;;;12.10;99.90;;;;;;2656623;28;20199;-66
2021/09/28 06:15:50;;;;;;;7.18;5.10;;;12.10;99.90;;;;;;2653332;28;20195;-66
2021/09/28 06:17:08;;;;;;;8.32;6.57;;;12.20;99.90;;;;;;2653444;28;20252;-66
2021/09/28 06:18:27;;;;;;;7.50;5.50;;;12.20;99.90;;;;;;2655912;28;20238;-66
2021/09/28 06:19:45;;;;;;;6.40;5.95;;;12.30;99.90;;;;;;2657347;28;20202;-66
2021/09/28 06:21:04;;;;;;;8.45;5.97;;;12.40;99.90;;;;;;2654549;28;20206;-66
2021/09/28 06:22:22;;;;;;;7.65;6.28;;;12.50;99.90;;;;;;2657252;28;20686;-66
2021/09/28 06:23:41;;;;;;;9.82;6.70;;;12.70;99.90;;;;;;2656664;28;20217;-66
2021/09/28 06:24:59;;;;;;;8.55;6.10;;;12.80;99.90;;;;;;2655597;28;20207;-66
2021/09/28 06:26:18;;;;;;;5.80;5.30;;;12.90;99.90;;;;;;2649950;28;20274;-67
2021/09/28 06:27:37;;;;;;;7.10;6.35;;;12.90;99.90;;;;;;2656000;28;20210;-67
2021/09/28 06:28:55;;;;;;;6.80;6.07;;;13.00;99.90;;;;;;2657220;28;20238;-67
2021/09/28 06:30:14;;;;;;;6.95;6.25;;;13.20;99.90;;;;;;2656974;28;20238;-67
2021/09/28 06:31:31;;;;;;;7.40;6.18;;;13.30;99.90;;;;;;2655863;28;20261;-67
2021/09/28 06:32:49;;;;;;;6.40;5.80;;;13.40;99.90;;;;;;2655981;28;20258;-66
2021/09/28 06:34:08;;;;;;;7.72;5.93;;;13.50;99.90;;;;;;2654430;28;20273;-66
2021/09/28 06:35:26;;;;;;;7.40;6.65;;;13.50;99.90;;;;;;2656450;28;20660;-67
2021/09/28 06:36:45;;;;;;;6.47;5.88;;;13.60;99.90;;;;;;2657126;28;20203;-66
2021/09/28 06:38:06;;;;;;;5.97;5.38;;;13.60;99.90;;;;;;2657737;28;20260;-66
2021/09/28 06:39:25;;;;;;;5.60;5.07;;;13.60;99.90;;;;;;2657382;28;20584;-66
2021/09/28 06:40:44;;;;;;;6.10;5.30;;;13.70;99.90;;;;;;2655422;28;20222;-66
2021/09/28 06:42:02;;;;;;;8.80;4.72;;;13.80;99.90;;;;;;2656923;28;20264;-66
2021/09/28 06:43:21;;;;;;;5.57;4.50;;;13.90;99.90;;;;;;2655449;28;20634;-66
2021/09/28 06:44:40;;;;;;;5.57;5.07;;;14.10;99.90;;;;;;2656853;28;20976;-66
2021/09/28 06:45:59;;;;;;;5.10;4.70;;;14.20;99.90;;;;;;2656940;28;20199;-66
2021/09/28 06:47:17;;;;;;;4.85;4.43;;;14.30;99.90;;;;;;2657831;28;20203;-66